Time;durP1;ratioP1;P1;durP2;ratioP2;P2;SDS_P1;SDS_P2;PMS_P1;PMS_P2;Temp;Humidity;BMP_temperature;BMP_pressure;BME280_temperature;BME280_humidity;BME280_pressure;Samples;Min_cycle;Max_cycle;Signal;HPM_P1;HPM_P2
2022/06/28 00:00:27;;;;;;;5.30;3.50;;;;;;;25.21;46.32;99034.59;234025;1217;139543;-59
2022/06/28 00:05:41;;;;;;;5.80;4.10;;;;;;;25.16;46.55;99034.73;234120;1216;139157;-58
2022/06/28 00:10:46;;;;;;;7.30;3.90;;;;;;;25.07;46.69;99031.21;234213;1217;138505;-59
2022/06/28 00:16:08;;;;;;;5.60;3.80;;;;;;;25.04;46.81;99034.31;234087;1216;138304;-58
2022/06/28 00:21:12;;;;;;;7.30;4.20;;;;;;;24.97;47.00;99041.34;234069;1217;139779;-59
2022/06/28 00:26:15;;;;;;;5.70;4.30;;;;;;;24.90;47.24;99040.23;234136;1217;139024;-59
2022/06/28 00:31:18;;;;;;;8.60;4.50;;;;;;;24.80;47.32;99036.23;234138;1217;138322;-59
2022/06/28 00:36:21;;;;;;;6.30;4.00;;;;;;;24.70;47.58;99038.02;233944;1215;139000;-59
2022/06/28 00:41:25;;;;;;;11.20;4.80;;;;;;;24.56;47.77;99033.29;234225;1215;138926;-59
2022/06/28 00:46:30;;;;;;;8.40;4.60;;;;;;;24.46;47.95;99045.21;234102;1216;138645;-58
2022/06/28 00:51:34;;;;;;;6.30;4.10;;;;;;;24.32;48.20;99048.63;234231;1216;138612;-57
2022/06/28 00:56:37;;;;;;;9.90;4.60;;;;;;;24.23;48.36;99045.79;234174;1217;138494;-58
2022/06/28 01:01:40;;;;;;;7.20;4.40;;;;;;;24.13;48.61;99046.62;234281;1217;138802;-58
2022/06/28 01:06:44;;;;;;;7.40;4.40;;;;;;;24.09;48.80;99046.00;233919;1217;138421;-57
2022/06/28 01:11:48;;;;;;;9.20;4.80;;;;;;;24.01;49.06;99034.47;234056;1217;138367;-58
2022/06/28 01:16:51;;;;;;;6.40;4.30;;;;;;;23.97;49.17;99039.25;234250;1217;138392;-58
2022/06/28 01:21:56;;;;;;;9.10;4.90;;;;;;;23.88;49.31;99032.18;234040;1216;138469;-59
2022/06/28 01:27:01;;;;;;;7.10;4.50;;;;;;;23.85;49.58;99035.06;234091;1217;138533;-58
2022/06/28 01:32:05;;;;;;;8.70;4.60;;;;;;;23.76;49.74;99035.73;234024;1217;138897;-58
2022/06/28 01:37:09;;;;;;;6.30;4.40;;;;;;;23.72;49.98;99047.23;233952;1217;138384;-59
2022/06/28 01:42:13;;;;;;;10.30;4.80;;;;;;;23.66;50.00;99054.84;234233;1215;139255;-58
2022/06/28 01:47:20;;;;;;;9.90;4.60;;;;;;;23.60;50.09;99058.42;234248;1217;138971;-59
2022/06/28 01:52:40;;;;;;;6.90;4.70;;;;;;;23.51;50.16;99063.46;234246;1217;138417;-59
2022/06/28 01:58:07;;;;;;;10.30;4.40;;;;;;;23.44;50.49;99066.23;234084;1217;138879;-58
2022/06/28 02:03:14;;;;;;;6.40;4.60;;;;;;;23.37;50.76;99070.98;234209;1216;138430;-60
2022/06/28 02:08:20;;;;;;;6.90;5.00;;;;;;;23.32;50.85;99074.80;234257;1215;140422;-58
2022/06/28 02:13:34;;;;;;;8.90;4.60;;;;;;;23.28;51.05;99082.02;234240;1216;138503;-58
2022/06/28 02:18:37;;;;;;;8.10;4.30;;;;;;;23.23;51.15;99093.98;234129;1216;138357;-57
2022/06/28 02:23:41;;;;;;;8.10;4.90;;;;;;;23.19;51.25;99089.35;234233;1217;138841;-58
2022/06/28 02:28:44;;;;;;;6.20;4.80;;;;;;;23.17;51.48;99099.51;234380;1215;138361;-58
2022/06/28 02:33:47;;;;;;;7.60;4.70;;;;;;;23.12;51.57;99096.84;234200;1216;138629;-57
2022/06/28 02:44:12;;;;;;;9.50;5.20;;;;;;;23.13;51.99;99102.67;234269;1215;138672;-59
2022/06/28 02:49:15;;;;;;;8.20;5.10;;;;;;;23.14;52.12;99108.41;234265;1215;138743;-59
2022/06/28 02:54:19;;;;;;;9.90;4.80;;;;;;;23.15;52.11;99109.52;234125;1216;138501;-58
2022/06/28 02:59:22;;;;;;;8.20;4.90;;;;;;;23.13;52.33;99117.52;234310;1215;139936;-57
2022/06/28 03:04:25;;;;;;;9.30;4.90;;;;;;;23.12;52.38;99116.09;234053;1217;138974;-57
2022/06/28 03:09:28;;;;;;;8.20;5.20;;;;;;;23.09;52.49;99116.50;234060;1216;138438;-57
2022/06/28 03:14:31;;;;;;;6.80;5.00;;;;;;;23.07;52.65;99106.12;234182;1215;139085;-57
2022/06/28 03:19:34;;;;;;;8.00;4.90;;;;;;;23.09;52.64;99112.77;234198;1216;141192;-56
2022/06/28 03:24:38;;;;;;;9.10;5.20;;;;;;;23.08;52.89;99102.77;234208;1217;138734;-57
2022/06/28 03:29:41;;;;;;;7.00;5.00;;;;;;;23.10;52.88;99111.54;234128;1216;138873;-57
2022/06/28 03:34:47;;;;;;;12.90;5.40;;;;;;;23.08;52.92;99106.49;234144;1216;138929;-56
2022/06/28 03:39:53;;;;;;;10.50;5.30;;;;;;;23.08;52.88;99110.36;234125;1216;138733;-57
2022/06/28 03:44:56;;;;;;;10.10;5.10;;;;;;;23.05;53.10;99113.52;234187;1216;138132;-57
2022/06/28 03:50:00;;;;;;;8.30;5.60;;;;;;;23.04;53.19;99107.73;234225;1216;139193;-60
2022/06/28 03:55:23;;;;;;;13.20;5.50;;;;;;;23.01;53.20;99112.08;234209;1215;138789;-57
2022/06/28 04:00:26;;;;;;;15.40;5.70;;;;;;;23.05;53.34;99116.14;234215;1216;139765;-58
2022/06/28 04:05:29;;;;;;;11.50;5.80;;;;;;;23.07;53.38;99115.66;234208;1216;138677;-60
2022/06/28 04:10:35;;;;;;;8.40;5.50;;;;;;;23.09;53.32;99121.45;234158;1217;138906;-59
2022/06/28 04:15:45;;;;;;;11.80;5.60;;;;;;;23.09;53.49;99123.79;234011;1217;138992;-58
2022/06/28 04:20:53;;;;;;;14.80;5.60;;;;;;;23.12;53.50;99127.11;233966;1217;138731;-58
2022/06/28 04:25:56;;;;;;;11.20;5.30;;;;;;;23.12;53.70;99120.73;233976;1217;138569;-58
2022/06/28 04:31:07;;;;;;;12.30;5.70;;;;;;;23.22;53.66;99116.91;234073;1217;138995;-57
2022/06/28 04:36:11;;;;;;;9.10;5.60;;;;;;;23.31;53.78;99111.02;234101;1217;139955;-58
2022/06/28 04:41:19;;;;;;;11.60;5.80;;;;;;;23.44;53.85;99114.00;234194;1217;139692;-61
2022/06/28 04:46:32;;;;;;;;;;;;;;;23.55;53.86;99113.82;234138;1217;138807;-60
2022/06/28 04:51:46;;;;;;;131.50;19.60;;;;;;;23.71;53.62;99119.60;234189;1217;126423;-59
2022/06/28 04:56:55;;;;;;;124.30;20.30;;;;;;;23.78;53.57;99119.90;234168;1216;139035;-58
2022/06/28 05:01:59;;;;;;;71.80;13.20;;;;;;;23.94;53.48;99118.12;234138;1216;139313;-62
2022/06/28 05:07:02;;;;;;;25.80;8.50;;;;;;;24.05;53.33;99116.71;233979;1217;138691;-62
2022/06/28 05:12:06;;;;;;;30.20;9.40;;;;;;;24.16;53.33;99120.02;233939;1216;139833;-60
2022/06/28 05:17:13;;;;;;;34.20;10.40;;;;;;;24.25;53.39;99108.47;234295;1216;139308;-60
2022/06/28 05:22:16;;;;;;;52.90;12.60;;;;;;;24.43;53.29;99113.58;234084;1217;139146;-60
2022/06/28 05:27:42;;;;;;;46.50;11.20;;;;;;;24.51;53.17;99104.08;234133;1216;139187;-60
2022/06/28 05:32:45;;;;;;;53.30;10.50;;;;;;;24.57;53.06;99100.52;234100;1217;138793;-61
2022/06/28 05:37:48;;;;;;;51.00;11.50;;;;;;;24.61;52.98;99095.34;234113;1217;139160;-60
2022/06/28 05:42:53;;;;;;;36.60;9.80;;;;;;;24.65;53.09;99091.67;234068;1217;138767;-61
2022/06/28 05:47:56;;;;;;;99.50;71.20;;;;;;;24.67;53.21;99082.90;233979;1217;138984;-59
2022/06/28 05:52:59;;;;;;;21.90;12.00;;;;;;;24.79;53.42;99081.33;234259;1216;138780;-61
2022/06/28 05:58:03;;;;;;;18.80;10.60;;;;;;;24.91;53.35;99076.61;234099;1217;139213;-61
2022/06/28 06:03:06;;;;;;;18.30;7.80;;;;;;;25.10;53.51;99071.34;233866;1217;138802;-60
2022/06/28 06:08:09;;;;;;;123.30;95.50;;;;;;;25.22;53.43;99061.59;234023;1217;138385;-61
2022/06/28 06:13:13;;;;;;;29.20;18.40;;;;;;;25.39;53.31;99059.98;234036;1217;139466;-60
2022/06/28 06:18:16;;;;;;;15.80;10.20;;;;;;;25.52;53.17;99057.53;234154;1215;139544;-60
2022/06/28 06:23:19;;;;;;;92.60;75.40;;;;;;;25.65;53.12;99061.26;234178;1216;139056;-59
2022/06/28 06:28:35;;;;;;;21.20;11.80;;;;;;;25.77;52.90;99061.90;234021;1217;138786;-58
2022/06/28 06:33:38;;;;;;;23.10;10.50;;;;;;;25.92;52.87;99068.90;234090;1217;138713;-57
2022/06/28 06:38:54;;;;;;;23.50;12.10;;;;;;;26.08;52.58;99069.77;234126;1217;138690;-57
2022/06/28 06:43:58;;;;;;;44.40;29.40;;;;;;;26.28;52.24;99072.15;233851;1217;139373;-59
2022/06/28 06:49:04;;;;;;;26.90;14.50;;;;;;;26.44;52.01;99066.27;234011;1217;138992;-58
2022/06/28 06:54:07;;;;;;;29.10;9.90;;;;;;;26.72;51.68;99070.41;234105;1217;138769;-59
2022/06/28 06:59:14;;;;;;;25.90;11.10;;;;;;;26.85;51.46;99072.08;234367;1216;139158;-61
2022/06/28 07:04:18;;;;;;;25.60;9.70;;;;;;;27.06;51.23;99075.36;234017;1217;139252;-60
2022/06/28 07:09:23;;;;;;;23.40;9.80;;;;;;;27.18;51.14;99076.60;233893;1217;138773;-59
2022/06/28 07:14:26;;;;;;;23.30;8.70;;;;;;;27.37;50.69;99082.92;234186;1217;138610;-60
2022/06/28 07:19:30;;;;;;;;;;;;;;;27.46;50.35;99082.14;234247;1216;138505;-62
2022/06/28 07:24:33;;;;;;;36.90;13.70;;;;;;;27.58;50.44;99085.52;234004;1217;126263;-61
2022/06/28 07:29:37;;;;;;;21.40;8.60;;;;;;;27.70;50.53;99095.63;233961;1217;139029;-61
2022/06/28 07:34:40;;;;;;;13.80;6.60;;;;;;;27.88;49.91;99100.93;234040;1217;138364;-62
2022/06/28 07:39:43;;;;;;;13.10;7.10;;;;;;;27.95;49.31;99086.81;234058;1217;139098;-60
2022/06/28 07:45:05;;;;;;;16.10;8.20;;;;;;;28.09;48.96;99082.35;234066;1217;138964;-58
2022/06/28 07:55:32;;;;;;;18.20;6.90;;;;;;;28.23;48.92;99067.52;234078;1217;139726;-59
2022/06/28 08:00:43;;;;;;;22.50;10.00;;;;;;;28.28;48.86;99067.35;233978;1217;139059;-60
2022/06/28 08:05:50;;;;;;;16.80;7.60;;;;;;;28.38;48.85;99064.64;234085;1216;138831;-59
2022/06/28 08:10:54;;;;;;;15.30;7.60;;;;;;;28.42;48.75;99062.24;234198;1216;138590;-58
2022/06/28 08:15:59;;;;;;;19.40;7.40;;;;;;;28.51;48.48;99066.34;233944;1216;138640;-59
2022/06/28 08:21:03;;;;;;;19.60;8.70;;;;;;;28.62;48.72;99070.14;233995;1217;138988;-59
2022/06/28 08:26:06;;;;;;;21.00;7.30;;;;;;;28.76;48.78;99079.86;233995;1216;138321;-60
2022/06/28 08:31:09;;;;;;;27.00;15.20;;;;;;;28.86;48.43;99076.40;233958;1216;138733;-60
2022/06/28 08:36:13;;;;;;;21.30;10.60;;;;;;;29.00;47.80;99074.88;234112;1216;139408;-59
2022/06/28 08:41:17;;;;;;;17.20;7.60;;;;;;;29.05;47.55;99069.61;234225;1216;138653;-59
2022/06/28 08:46:21;;;;;;;12.30;7.40;;;;;;;29.18;47.11;99079.10;233905;1216;139595;-61
2022/06/28 08:51:30;;;;;;;26.40;9.00;;;;;;;29.25;47.10;99078.38;234283;1216;138418;-61
2022/06/28 08:56:35;;;;;;;17.60;8.20;;;;;;;29.35;47.17;99088.48;234212;1216;139391;-58
2022/06/28 09:01:38;;;;;;;16.50;6.50;;;;;;;29.44;46.69;99088.19;233711;1216;138517;-60
2022/06/28 09:06:41;;;;;;;15.70;6.40;;;;;;;29.65;46.16;99088.05;234159;1216;138479;-59
2022/06/28 09:11:45;;;;;;;17.90;5.70;;;;;;;29.75;45.92;99081.70;234219;1217;139261;-60
2022/06/28 09:16:48;;;;;;;14.40;4.20;;;;;;;29.88;45.28;99078.55;234253;1216;138950;-59
2022/06/28 09:21:51;;;;;;;47.90;19.80;;;;;;;29.89;44.29;99071.82;234202;1216;138529;-57
2022/06/28 09:26:59;;;;;;;15.80;5.60;;;;;;;29.96;43.45;99078.33;234161;1216;139349;-58
2022/06/28 09:32:06;;;;;;;18.20;4.20;;;;;;;30.06;43.47;99065.60;234217;1215;139576;-57
2022/06/28 09:37:09;;;;;;;235.10;184.10;;;;;;;30.22;43.16;99058.84;234149;1217;138915;-56
2022/06/28 09:42:12;;;;;;;20.00;9.60;;;;;;;30.37;42.68;99062.73;234226;1216;140795;-57
2022/06/28 09:47:19;;;;;;;30.50;22.00;;;;;;;30.57;42.59;99069.80;234191;1217;138682;-57
2022/06/28 09:52:28;;;;;;;12.80;5.50;;;;;;;30.67;42.60;99069.33;234078;1217;139355;-57
2022/06/28 09:57:34;;;;;;;6.80;3.50;;;;;;;30.76;41.97;99069.52;234129;1217;138864;-58
2022/06/28 10:02:37;;;;;;;7.10;3.50;;;;;;;30.86;41.84;99066.89;234218;1215;139069;-58
2022/06/28 10:07:41;;;;;;;6.70;3.40;;;;;;;30.97;41.51;99070.64;234084;1217;138506;-57
2022/06/28 10:18:19;;;;;;;14.50;4.30;;;;;;;31.25;40.79;99078.02;233637;1217;139255;-56
2022/06/28 10:23:25;;;;;;;8.80;4.60;;;;;;;31.39;40.93;99089.52;233685;1217;138974;-57
2022/06/28 10:28:34;;;;;;;30.00;4.80;;;;;;;31.37;40.60;99150.42;233518;1217;139556;-55
2022/06/28 10:33:41;;;;;;;29.30;3.40;;;;;;;30.92;39.61;99157.97;233728;1217;139317;-56
2022/06/28 10:39:09;;;;;;;17.30;3.50;;;;;;;30.63;39.75;99157.59;234086;1216;139100;-56
2022/06/28 10:44:35;;;;;;;14.20;2.90;;;;;;;30.20;39.75;99147.19;234144;1217;138854;-57
2022/06/28 10:49:44;;;;;;;13.60;3.00;;;;;;;29.95;39.70;99138.80;234011;1217;137979;-55
2022/06/28 10:54:57;;;;;;;11.20;3.10;;;;;;;29.55;39.81;99162.44;234212;1216;138310;-55
2022/06/28 11:00:26;;;;;;;11.90;2.90;;;;;;;28.95;40.31;99167.13;234073;1217;138518;-54
2022/06/28 11:05:46;;;;;;;6.90;3.20;;;;;;;28.43;40.96;99161.94;234090;1216;139498;-58
2022/06/28 11:11:06;;;;;;;13.50;5.30;;;;;;;28.00;41.53;99144.66;234252;1216;138137;-55
2022/06/28 11:16:10;;;;;;;18.80;11.50;;;;;;;27.62;42.37;99183.75;234134;1217;138644;-55
2022/06/28 11:21:13;;;;;;;;;;;;;;;27.29;42.87;99194.30;233833;1217;138924;-54
2022/06/28 11:31:42;;;;;;;9.50;3.50;;;;;;;26.68;44.60;99233.21;234145;1217;139148;-56
2022/06/28 11:36:45;;;;;;;7.80;3.70;;;;;;;26.43;45.62;99238.71;234183;1216;138525;-57
2022/06/28 11:41:50;;;;;;;17.20;13.20;;;;;;;26.29;46.38;99251.45;233950;1216;138259;-57
2022/06/28 11:46:53;;;;;;;;;;;;;;;26.14;47.04;99244.35;234122;1216;138784;-57
2022/06/28 11:51:57;;;;;;;8.80;4.70;;;;;;;26.01;47.56;99241.27;234262;1216;125714;-57
2022/06/28 11:57:12;;;;;;;10.50;5.20;;;;;;;25.90;48.36;99236.73;234190;1216;138881;-56
2022/06/28 12:02:41;;;;;;;10.30;5.30;;;;;;;25.86;49.02;99236.10;234107;1216;138730;-57
2022/06/28 12:07:44;;;;;;;13.90;6.80;;;;;;;25.90;49.63;99251.46;234026;1217;140176;-56
2022/06/28 12:12:47;;;;;;;11.00;7.00;;;;;;;25.96;50.30;99288.21;234193;1216;139106;-55
2022/06/28 12:17:50;;;;;;;15.30;8.30;;;;;;;26.00;50.87;99301.33;234173;1216;139374;-55
2022/06/28 12:22:59;;;;;;;11.90;7.60;;;;;;;26.05;51.45;99293.11;234113;1217;138458;-56
2022/06/28 12:28:02;;;;;;;13.70;8.50;;;;;;;26.13;51.67;99270.23;233546;1216;138192;-55
2022/06/28 12:33:05;;;;;;;20.90;9.80;;;;;;;26.14;52.07;99265.77;234144;1217;138639;-55
2022/06/28 12:38:08;;;;;;;11.50;8.50;;;;;;;26.15;52.56;99285.92;234055;1217;138190;-54
2022/06/28 12:43:11;;;;;;;14.10;9.70;;;;;;;26.17;52.67;99288.52;234172;1216;139109;-55
2022/06/28 12:48:14;;;;;;;14.10;10.40;;;;;;;26.25;53.17;99278.45;234168;1216;139106;-56
2022/06/28 12:53:23;;;;;;;17.80;10.30;;;;;;;26.30;53.35;99265.13;234276;1216;139738;-57
2022/06/28 12:58:26;;;;;;;12.30;9.30;;;;;;;26.31;53.57;99255.40;234095;1217;138791;-56
2022/06/28 13:03:29;;;;;;;14.50;9.70;;;;;;;26.31;53.79;99248.63;234161;1217;140154;-56
2022/06/28 13:08:34;;;;;;;14.40;10.30;;;;;;;26.26;54.15;99242.69;234144;1216;138797;-57
2022/06/28 13:13:37;;;;;;;13.80;9.90;;;;;;;26.18;54.37;99237.30;234035;1216;139098;-59
2022/06/28 13:18:42;;;;;;;13.50;10.30;;;;;;;26.09;54.81;99238.76;233606;1217;141541;-58
2022/06/28 13:23:45;;;;;;;17.70;11.00;;;;;;;26.10;55.25;99229.94;234174;1216;139406;-57
2022/06/28 13:28:51;;;;;;;61.70;52.60;;;;;;;26.20;55.51;99226.55;234253;1216;139646;-56
2022/06/28 13:33:54;;;;;;;18.30;13.00;;;;;;;26.32;55.95;99230.00;234125;1216;140347;-58
2022/06/28 13:38:57;;;;;;;16.00;12.30;;;;;;;26.34;56.17;99232.39;233977;1217;138698;-57
2022/06/28 13:44:13;;;;;;;19.40;16.60;;;;;;;26.40;56.67;99231.64;234185;1215;140046;-56
2022/06/28 13:49:15;;;;;;;18.90;14.80;;;;;;;26.61;57.02;99234.14;233724;1215;138712;-57
2022/06/28 13:54:18;;;;;;;18.80;15.30;;;;;;;26.74;56.89;99233.36;233924;1216;138693;-57
2022/06/28 13:59:28;;;;;;;17.20;14.30;;;;;;;26.86;57.15;99238.77;234015;1216;138758;-56
2022/06/28 14:04:30;;;;;;;30.90;23.70;;;;;;;26.96;56.94;99244.11;234083;1216;139331;-57
2022/06/28 14:09:34;;;;;;;16.70;14.10;;;;;;;26.98;57.03;99232.29;233575;1216;139383;-59
2022/06/28 14:14:37;;;;;;;17.00;12.60;;;;;;;27.11;57.21;99225.38;233516;1216;139291;-58
2022/06/28 14:19:40;;;;;;;13.60;11.60;;;;;;;27.23;57.33;99209.63;233310;1217;139056;-56
2022/06/28 14:24:43;;;;;;;14.70;9.40;;;;;;;27.31;56.96;99201.48;233547;1217;139125;-57
2022/06/28 14:29:47;;;;;;;13.70;7.40;;;;;;;27.35;56.70;99201.34;233598;1215;139169;-60
2022/06/28 14:34:52;;;;;;;8.60;6.50;;;;;;;27.45;56.08;99206.75;233742;1215;138583;-56
2022/06/28 14:39:59;;;;;;;11.70;7.70;;;;;;;27.56;55.63;99220.84;233491;1217;138519;-56
2022/06/28 14:45:08;;;;;;;45.70;39.60;;;;;;;27.58;55.13;99220.81;233500;1216;139154;-58
2022/06/28 14:50:13;;;;;;;9.90;7.10;;;;;;;27.62;54.68;99226.13;233257;1217;139680;-60
2022/06/28 14:55:17;;;;;;;14.60;6.90;;;;;;;27.58;54.13;99234.57;233233;1217;139490;-56
2022/06/28 15:00:20;;;;;;;9.30;7.10;;;;;;;27.49;54.02;99241.02;233300;1217;138624;-57
2022/06/28 15:05:28;;;;;;;9.30;6.90;;;;;;;27.37;53.86;99244.11;233468;1217;139422;-56
2022/06/28 15:10:32;;;;;;;8.30;7.20;;;;;;;27.20;53.78;99240.77;233072;1217;138851;-56
2022/06/28 15:15:35;;;;;;;10.50;7.20;;;;;;;27.05;53.63;99251.10;232840;1216;139203;-56
2022/06/28 15:20:38;;;;;;;8.20;7.00;;;;;;;26.92;53.74;99267.90;233104;1216;138933;-57
2022/06/28 15:31:03;;;;;;;114.50;98.70;;;;;;;26.76;54.33;99277.16;233583;1216;139229;-56
2022/06/28 15:36:06;;;;;;;15.30;7.70;;;;;;;26.78;54.31;99284.41;233389;1217;140232;-56
2022/06/28 15:41:09;;;;;;;10.90;8.50;;;;;;;26.76;54.25;99282.02;233460;1217;138989;-58
2022/06/28 15:46:12;;;;;;;10.10;7.70;;;;;;;26.72;54.33;99276.30;233347;1217;138977;-57
2022/06/28 15:51:15;;;;;;;9.30;7.40;;;;;;;26.75;54.24;99278.27;233477;1217;138963;-59
2022/06/28 15:56:20;;;;;;;10.60;7.30;;;;;;;26.80;54.54;99276.11;233023;1216;139163;-59
2022/06/28 16:01:27;;;;;;;26.10;23.00;;;;;;;26.81;54.18;99267.87;233276;1215;139073;-57
2022/06/28 16:06:31;;;;;;;16.70;14.60;;;;;;;26.78;54.34;99274.45;233196;1217;138662;-55
2022/06/28 16:11:34;;;;;;;9.00;6.20;;;;;;;26.75;54.53;99276.89;233355;1217;138477;-58
2022/06/28 16:16:37;;;;;;;9.00;7.00;;;;;;;26.77;54.30;99284.60;233458;1216;138805;-58
2022/06/28 16:21:42;;;;;;;75.60;67.30;;;;;;;26.80;54.49;99287.95;233062;1216;138366;-57
2022/06/28 16:26:45;;;;;;;9.70;8.10;;;;;;;26.82;54.45;99288.60;232647;1216;138915;-56
2022/06/28 16:31:48;;;;;;;8.70;7.30;;;;;;;26.81;54.00;99294.19;233108;1217;138588;-58
2022/06/28 16:36:51;;;;;;;139.60;112.40;;;;;;;26.80;53.79;99294.37;233592;1216;139034;-59
2022/06/28 16:41:54;;;;;;;13.10;9.20;;;;;;;26.79;53.76;99278.02;233431;1216;139747;-58
2022/06/28 16:46:57;;;;;;;8.20;6.90;;;;;;;26.87;53.59;99272.48;233547;1217;138595;-58
2022/06/28 16:52:00;;;;;;;10.10;6.60;;;;;;;26.93;53.61;99269.22;233648;1217;138969;-58
2022/06/28 16:57:04;;;;;;;9.10;5.80;;;;;;;27.02;53.50;99269.77;233516;1215;139026;-58
2022/06/28 17:02:08;;;;;;;7.60;5.70;;;;;;;27.06;53.25;99266.27;233652;1217;138880;-59
2022/06/28 17:07:21;;;;;;;;;;;;;;;27.05;53.14;99262.05;233469;1217;138612;-57
2022/06/28 17:12:26;;;;;;;6.60;5.80;;;;;;;27.02;53.20;99260.45;233669;1216;125329;-58
2022/06/28 17:17:30;;;;;;;8.90;5.20;;;;;;;27.03;52.99;99254.02;233609;1217;140127;-58
2022/06/28 17:22:34;;;;;;;9.50;6.30;;;;;;;26.98;53.07;99243.11;233542;1217;138673;-56
2022/06/28 17:27:38;;;;;;;6.90;5.10;;;;;;;26.95;52.93;99251.70;233361;1217;138808;-57
2022/06/28 17:32:41;;;;;;;7.50;4.90;;;;;;;26.89;52.91;99242.20;233523;1217;138965;-58
2022/06/28 17:37:45;;;;;;;10.00;5.30;;;;;;;26.85;52.93;99238.67;233424;1217;139269;-58
2022/06/28 17:42:48;;;;;;;126.40;108.60;;;;;;;26.77;52.82;99224.10;233386;1217;138994;-57
2022/06/28 17:47:51;;;;;;;34.60;28.40;;;;;;;26.75;53.05;99220.39;233416;1217;139523;-57
2022/06/28 17:52:54;;;;;;;10.70;8.20;;;;;;;26.75;53.13;99216.89;233676;1217;139780;-58
2022/06/28 17:57:57;;;;;;;7.80;6.20;;;;;;;26.73;53.07;99213.64;233503;1216;139987;-58
2022/06/28 18:03:00;;;;;;;9.60;7.20;;;;;;;26.73;53.06;99218.45;233513;1217;138171;-58
2022/06/28 18:08:03;;;;;;;6.20;5.10;;;;;;;26.71;53.24;99209.20;233578;1216;138669;-56
2022/06/28 18:13:06;;;;;;;7.70;5.20;;;;;;;26.70;53.05;99206.97;233527;1217;138714;-57
2022/06/28 18:18:09;;;;;;;6.90;4.90;;;;;;;26.72;53.23;99205.14;233414;1214;138999;-58
2022/06/28 18:23:13;;;;;;;8.30;5.00;;;;;;;26.68;53.08;99193.46;233568;1217;139417;-56
2022/06/28 18:28:16;;;;;;;6.50;4.70;;;;;;;26.66;53.22;99201.23;233429;1217;139452;-57
2022/06/28 18:33:19;;;;;;;10.40;5.40;;;;;;;26.63;53.18;99206.95;233496;1217;141996;-57
2022/06/28 18:38:22;;;;;;;4.90;4.50;;;;;;;26.62;53.28;99224.36;233413;1217;139174;-57
2022/06/28 18:43:25;;;;;;;6.30;5.20;;;;;;;26.57;53.15;99223.55;233450;1217;139121;-57
2022/06/28 18:48:28;;;;;;;6.30;5.40;;;;;;;26.54;53.31;99240.04;233511;1217;138735;-57
2022/06/28 18:53:31;;;;;;;313.50;278.80;;;;;;;26.47;53.51;99237.92;233472;1216;139091;-57
2022/06/28 18:58:35;;;;;;;26.40;22.40;;;;;;;26.38;53.26;99250.44;233140;1217;139389;-59
2022/06/28 19:03:39;;;;;;;8.80;7.00;;;;;;;26.26;53.38;99263.30;233370;1217;138724;-58
2022/06/28 19:08:42;;;;;;;361.90;324.80;;;;;;;26.14;53.38;99272.92;233451;1217;138573;-57
2022/06/28 19:13:46;;;;;;;19.50;13.70;;;;;;;26.07;53.44;99287.07;233470;1217;142000;-58
2022/06/28 19:18:53;;;;;;;11.50;6.60;;;;;;;26.02;53.90;99303.20;233114;1217;139364;-58
2022/06/28 19:23:56;;;;;;;8.70;6.30;;;;;;;25.92;53.93;99305.90;233246;1217;138629;-60
2022/06/28 19:29:02;;;;;;;6.80;5.60;;;;;;;25.85;53.95;99311.46;233581;1217;139484;-59
2022/06/28 19:34:05;;;;;;;8.90;5.70;;;;;;;25.78;54.08;99315.49;233440;1217;138801;-60
2022/06/28 19:39:08;;;;;;;9.10;6.40;;;;;;;25.79;54.35;99328.64;233477;1216;139251;-58
2022/06/28 19:44:15;;;;;;;10.00;7.50;;;;;;;25.81;54.64;99326.75;233092;1217;138678;-59
2022/06/28 19:49:19;;;;;;;147.00;118.40;;;;;;;25.91;54.72;99332.33;233550;1217;138493;-58
2022/06/28 19:54:24;;;;;;;28.40;23.30;;;;;;;25.96;54.80;99329.88;233604;1217;139647;-59
2022/06/28 19:59:27;;;;;;;;;;;;;;;26.04;54.60;99332.92;233705;1216;139573;-59
2022/06/28 20:04:30;;;;;;;8.00;6.40;;;;;;;25.96;54.64;99342.76;233376;1217;125446;-58
2022/06/28 20:09:34;;;;;;;8.40;6.20;;;;;;;25.87;54.77;99338.91;233382;1217;138152;-59
2022/06/28 20:14:40;;;;;;;9.50;6.50;;;;;;;25.78;54.81;99335.34;233564;1217;139646;-58
2022/06/28 20:19:43;;;;;;;8.80;6.50;;;;;;;25.74;54.94;99340.67;232876;1217;138221;-58
2022/06/28 20:24:46;;;;;;;10.20;6.40;;;;;;;25.68;55.05;99329.99;233632;1215;139276;-58
2022/06/28 20:29:49;;;;;;;24.60;16.20;;;;;;;25.64;55.08;99330.74;233515;1217;139284;-58
2022/06/28 20:34:52;;;;;;;10.40;7.70;;;;;;;25.58;55.05;99319.52;233718;1217;139036;-59
2022/06/28 20:39:56;;;;;;;9.70;6.70;;;;;;;25.59;55.37;99310.70;233481;1217;138572;-58
2022/06/28 20:45:03;;;;;;;10.80;7.40;;;;;;;25.54;55.23;99305.66;233455;1217;139070;-57
2022/06/28 20:50:13;;;;;;;12.80;7.20;;;;;;;25.50;55.36;99306.83;233369;1217;138804;-59
2022/06/28 20:55:18;;;;;;;11.60;7.80;;;;;;;25.40;55.33;99293.16;233241;1217;139350;-57
2022/06/28 21:00:22;;;;;;;9.10;7.40;;;;;;;25.34;55.47;99294.33;233417;1217;138924;-58
2022/06/28 21:05:27;;;;;;;11.90;7.50;;;;;;;25.26;55.71;99299.38;233593;1217;138266;-59
2022/06/28 21:10:31;;;;;;;9.60;7.00;;;;;;;25.15;55.84;99308.10;233446;1217;138411;-59
2022/06/28 21:15:35;;;;;;;12.60;8.20;;;;;;;25.08;55.88;99311.45;233033;1216;139637;-58
2022/06/28 21:20:38;;;;;;;10.40;7.50;;;;;;;25.01;56.04;99315.36;233527;1216;139621;-59
2022/06/28 21:25:42;;;;;;;9.30;7.30;;;;;;;24.91;56.20;99317.06;233503;1217;138537;-59
2022/06/28 21:30:45;;;;;;;10.70;7.70;;;;;;;24.83;56.32;99327.33;233475;1216;139129;-56
2022/06/28 21:35:49;;;;;;;10.40;7.40;;;;;;;24.72;56.59;99325.45;233313;1217;139854;-58
2022/06/28 21:40:52;;;;;;;8.80;6.90;;;;;;;24.64;56.60;99328.98;233518;1217;138226;-59
2022/06/28 21:46:09;;;;;;;8.60;6.70;;;;;;;24.55;56.76;99328.11;233420;1217;138031;-59
2022/06/28 21:56:36;;;;;;;10.20;7.30;;;;;;;24.41;56.96;99327.85;233458;1217;140397;-59
2022/06/28 22:01:41;;;;;;;8.60;6.70;;;;;;;24.40;57.13;99347.20;233423;1217;139678;-56
2022/06/28 22:06:45;;;;;;;16.40;7.50;;;;;;;24.40;57.14;99348.12;233400;1217;138367;-58
2022/06/28 22:11:48;;;;;;;8.00;6.90;;;;;;;24.38;57.12;99338.67;233553;1217;138966;-57
2022/06/28 22:16:51;;;;;;;10.30;6.60;;;;;;;24.31;57.17;99340.39;233586;1217;138131;-57
2022/06/28 22:21:54;;;;;;;8.50;6.00;;;;;;;24.24;57.23;99340.42;233487;1217;140975;-57
2022/06/28 22:26:57;;;;;;;9.10;6.20;;;;;;;24.19;57.28;99335.77;233569;1217;139382;-57
2022/06/28 22:32:00;;;;;;;7.40;6.60;;;;;;;24.16;57.40;99336.54;233438;1217;138644;-58
2022/06/28 22:37:03;;;;;;;8.40;6.50;;;;;;;24.07;57.36;99338.83;233496;1217;138684;-60
2022/06/28 22:42:06;;;;;;;9.60;6.80;;;;;;;24.02;57.62;99328.52;233528;1217;138704;-57
2022/06/28 22:47:09;;;;;;;7.10;6.40;;;;;;;23.95;57.72;99334.98;233669;1217;138465;-58
2022/06/28 22:52:12;;;;;;;8.50;7.00;;;;;;;23.86;57.84;99331.52;233465;1217;138801;-58
2022/06/28 22:57:16;;;;;;;11.70;7.10;;;;;;;23.82;57.94;99318.08;233516;1217;140568;-58
2022/06/28 23:02:19;;;;;;;8.50;7.50;;;;;;;23.82;58.05;99308.41;233533;1217;140765;-56
2022/06/28 23:07:22;;;;;;;11.00;8.20;;;;;;;23.78;58.27;99300.19;233608;1217;138504;-57
2022/06/28 23:12:25;;;;;;;9.70;8.20;;;;;;;23.76;58.24;99287.14;233611;1217;139809;-58
2022/06/28 23:17:28;;;;;;;13.30;8.50;;;;;;;23.70;58.28;99271.92;233669;1217;139544;-59
2022/06/28 23:22:31;;;;;;;9.40;7.60;;;;;;;23.61;58.29;99267.70;233631;1215;139486;-58
2022/06/28 23:27:34;;;;;;;13.40;8.20;;;;;;;23.54;58.41;99274.79;233534;1217;139898;-58
2022/06/28 23:32:37;;;;;;;8.10;7.20;;;;;;;23.45;58.49;99273.85;233563;1217;139346;-58
2022/06/28 23:37:40;;;;;;;8.90;6.20;;;;;;;23.40;58.62;99277.46;233459;1217;139783;-58
2022/06/28 23:42:43;;;;;;;9.10;7.60;;;;;;;23.36;58.71;99277.33;233504;1217;139927;-58